Terminal Aerodrome Forecast
Issued by NWS Tiyan, Guam

Home | Current Version | Previous Version | Text Only | Print | Product List | Glossary On
Versions: 1 2 3 4 5 6 7 8 9 10 11 12 13 14 15 16 17 18 19
000
FTPQ31 PGUM 221133
TAFGUM
TAF
PGUM 221133Z 2212/2318 03011KT P6SM VCTS SCT025CB SCT050 BKN140
      TEMPO 2212/2214 5SM -SHRA BKN020 BKN050 OVC120
     FM221400 07007KT P6SM VCSH SCT025 SCT050 BKN120
     FM222300 09011KT P6SM VCSH SCT025 SCT050 BKN120
     FM230800 11009KT P6SM VCSH SCT025 SCT050 BKN130=

USA.gov is the U.S. government's official web portal to all federal, state and local government web resources and services.